createdAt,value
2024-04-16T04:01:15.352Z,6.70
2024-04-16T04:03:44.515Z,6.72
2024-04-16T04:06:13.867Z,6.72
2024-04-16T04:08:40.864Z,6.71
2024-04-16T04:11:09.735Z,6.71
2024-04-16T04:13:37.963Z,6.70
2024-04-16T04:19:03.761Z,6.63
2024-04-16T04:21:57.859Z,6.62
2024-04-16T04:29:08.083Z,6.67
2024-04-16T04:31:19.964Z,6.63
2024-04-16T04:33:58.046Z,6.63
2024-04-16T04:36:24.990Z,6.59
2024-04-16T04:40:23.017Z,6.52
2024-04-16T04:42:27.456Z,6.52
2024-04-16T04:45:21.236Z,6.49
2024-04-16T04:47:51.134Z,6.51
2024-04-16T04:50:19.388Z,6.51
2024-04-16T04:52:54.726Z,6.51
2024-04-16T04:55:33.111Z,6.49
2024-04-16T04:58:04.034Z,6.48
2024-04-16T05:00:31.084Z,6.49
2024-04-16T05:02:58.553Z,6.43
2024-04-16T05:05:29.033Z,6.40
2024-04-16T05:07:55.813Z,6.39
2024-04-16T05:10:22.642Z,6.41
2024-04-16T05:12:49.517Z,6.39
2024-04-16T05:15:16.322Z,6.44
2024-04-16T05:18:11.555Z,6.52
2024-04-16T05:24:24.673Z,6.66
2024-04-16T05:27:14.636Z,6.68
2024-04-16T05:45:46.475Z,7.03
2024-04-16T05:48:13.561Z,7.09
2024-04-16T05:57:29.149Z,7.22
2024-04-16T07:44:53.904Z,8.26
2024-04-16T07:47:29.811Z,8.30
2024-04-16T07:51:01.708Z,8.34
2024-04-16T08:47:40.415Z,9.81
2024-04-16T08:54:07.763Z,9.76
2024-04-16T08:57:59.373Z,9.72
2024-04-16T09:11:23.886Z,10.08
2024-04-16T09:17:06.926Z,10.79
2024-04-16T09:20:04.521Z,10.98
2024-04-16T09:22:31.652Z,10.88
2024-04-16T09:25:30.992Z,10.67
2024-04-16T09:27:58.299Z,10.49
2024-04-16T09:30:25.321Z,10.70
2024-04-16T09:33:11.998Z,10.89
2024-04-16T09:35:39.911Z,11.29
2024-04-16T09:38:08.759Z,11.29
2024-04-16T09:40:36.432Z,11.26
2024-04-16T09:43:06.316Z,11.23
2024-04-16T09:45:34.100Z,11.28
2024-04-16T09:48:08.897Z,11.28
2024-04-16T09:50:49.852Z,11.16
2024-04-16T09:53:24.650Z,10.97
2024-04-16T09:55:53.323Z,10.98
2024-04-16T09:58:21.589Z,10.99
2024-04-16T10:00:53.861Z,10.93
2024-04-16T10:03:28.695Z,10.75
2024-04-16T10:05:58.585Z,10.68
2024-04-16T10:08:28.756Z,10.73
2024-04-16T10:11:14.778Z,10.85
2024-04-16T10:14:12.878Z,10.85
2024-04-16T10:19:42.311Z,10.91
2024-04-16T10:22:14.211Z,11.07
2024-04-16T10:24:55.428Z,11.35
2024-04-16T10:27:39.867Z,11.47
2024-04-16T10:33:15.956Z,11.74
2024-04-16T10:35:45.764Z,11.61
2024-04-16T10:38:12.488Z,11.52
2024-04-16T10:40:39.714Z,11.82
2024-04-16T10:43:18.127Z,11.90
2024-04-16T10:45:47.099Z,11.87
2024-04-16T10:48:22.907Z,11.78
2024-04-16T10:50:53.037Z,11.67
2024-04-16T10:56:05.951Z,11.95
2024-04-16T10:58:35.667Z,12.21
2024-04-16T11:01:03.294Z,12.13
2024-04-16T11:03:35.119Z,11.94
2024-04-16T11:06:02.236Z,11.91
2024-04-16T11:08:29.002Z,11.69
2024-04-16T11:11:05.996Z,11.42
2024-04-16T15:16:44.320Z,11.79
2024-04-16T15:19:11.205Z,11.58
2024-04-16T15:21:38.318Z,11.53
2024-04-16T15:24:05.371Z,11.41
2024-04-16T16:39:13.452Z,11.64
2024-04-16T16:41:50.824Z,11.60
2024-04-16T16:44:17.490Z,11.51
2024-04-16T16:46:44.422Z,11.43
2024-04-16T16:49:11.284Z,11.33
2024-04-16T17:41:11.308Z,10.69
2024-04-16T17:43:38.158Z,10.61
2024-04-16T18:16:37.068Z,10.14
2024-04-16T18:19:08.457Z,10.10
2024-04-16T18:23:21.774Z,10.00
